Time;durP1;ratioP1;P1;durP2;ratioP2;P2;SDS_P1;SDS_P2;PMS_P1;PMS_P2;Temp;Humidity;BMP_temperature;BMP_pressure;BME280_temperature;BME280_humidity;BME280_pressure;Samples;Min_cycle;Max_cycle;Signal;HPM_P1;HPM_P2
2021/10/25 00:01:09;;;;;;;2.90;2.00;;;7.50;63.80;;;;;;5033719;28;20025;-72
2021/10/25 00:03:35;;;;;;;2.83;2.10;;;7.50;63.90;;;;;;5033657;28;20034;-73
2021/10/25 00:06:02;;;;;;;3.45;2.08;;;7.50;63.90;;;;;;5033851;28;20403;-72
2021/10/25 00:08:27;;;;;;;2.90;2.03;;;7.50;63.90;;;;;;5033338;28;20022;-72
2021/10/25 00:10:53;;;;;;;2.55;2.10;;;7.50;64.00;;;;;;5034987;28;20101;-72
2021/10/25 00:13:19;;;;;;;2.30;1.90;;;7.50;64.10;;;;;;5033505;28;20105;-72
2021/10/25 00:15:45;;;;;;;2.75;2.10;;;7.50;64.20;;;;;;5033673;28;20033;-72
2021/10/25 00:18:11;;;;;;;3.78;1.90;;;7.50;64.20;;;;;;5032758;28;20415;-72
2021/10/25 00:20:36;;;;;;;3.08;2.13;;;7.50;64.20;;;;;;5032902;28;20032;-73
2021/10/25 00:23:03;;;;;;;2.97;2.00;;;7.50;64.30;;;;;;5033845;28;20079;-73
2021/10/25 00:25:29;;;;;;;2.30;1.80;;;7.40;64.50;;;;;;5034785;28;20021;-70
2021/10/25 00:27:55;;;;;;;5.18;3.08;;;7.40;64.60;;;;;;5034454;28;20029;-74
2021/10/25 00:30:21;;;;;;;2.60;1.90;;;7.40;64.60;;;;;;5032795;28;20494;-73
2021/10/25 00:32:47;;;;;;;2.35;1.75;;;7.40;64.50;;;;;;5033040;28;20032;-73
2021/10/25 00:35:12;;;;;;;3.25;1.90;;;7.40;64.40;;;;;;5034599;28;20029;-72
2021/10/25 00:37:38;;;;;;;2.63;1.90;;;7.40;64.50;;;;;;5032781;28;20041;-73
2021/10/25 00:40:05;;;;;;;2.00;1.80;;;7.40;64.60;;;;;;5033292;28;20459;-73
2021/10/25 00:42:32;;;;;;;3.38;2.00;;;7.40;64.60;;;;;;5034153;28;20029;-74
2021/10/25 00:44:58;;;;;;;3.15;1.65;;;7.40;64.70;;;;;;5034266;28;20113;-73
2021/10/25 00:47:24;;;;;;;3.58;1.80;;;7.40;64.50;;;;;;5033961;28;20037;-72
2021/10/25 00:49:50;;;;;;;2.80;1.80;;;7.40;64.60;;;;;;5032978;28;20075;-73
2021/10/25 00:52:18;;;;;;;3.35;1.70;;;7.40;64.70;;;;;;5033853;28;20071;-72
2021/10/25 00:54:44;;;;;;;3.17;1.88;;;7.30;64.50;;;;;;5033000;28;20117;-72
2021/10/25 00:57:10;;;;;;;3.05;1.92;;;7.40;64.30;;;;;;5033770;28;20512;-72
2021/10/25 00:59:35;;;;;;;2.97;1.83;;;7.40;64.10;;;;;;5032346;28;20037;-70
2021/10/25 01:02:01;;;;;;;2.53;1.88;;;7.40;64.20;;;;;;5033260;28;20460;-73
2021/10/25 01:04:27;;;;;;;2.65;1.70;;;7.30;64.30;;;;;;5032245;28;20059;-72
2021/10/25 01:06:54;;;;;;;4.22;2.03;;;7.30;64.40;;;;;;5033991;28;20022;-73
2021/10/25 01:09:20;;;;;;;2.63;1.90;;;7.30;64.50;;;;;;5033946;28;20029;-72
2021/10/25 01:11:48;;;;;;;2.88;2.00;;;7.30;64.40;;;;;;5033736;28;20029;-73
2021/10/25 01:14:15;;;;;;;4.25;1.92;;;7.30;64.30;;;;;;5032498;28;20029;-72
2021/10/25 01:16:41;;;;;;;3.15;1.88;;;7.30;64.40;;;;;;5033498;28;20487;-73
2021/10/25 01:19:06;;;;;;;2.80;1.83;;;7.30;64.60;;;;;;5033713;28;20034;-72
2021/10/25 01:21:33;;;;;;;2.88;1.67;;;7.30;64.60;;;;;;5033585;28;20486;-72
2021/10/25 01:23:59;;;;;;;3.13;2.20;;;7.20;64.40;;;;;;5033657;28;20025;-73
2021/10/25 01:26:25;;;;;;;3.15;1.90;;;7.20;64.40;;;;;;5031958;28;20030;-73
2021/10/25 01:28:53;;;;;;;2.33;1.70;;;7.20;64.30;;;;;;5033306;28;20032;-72
2021/10/25 01:31:20;;;;;;;3.47;1.80;;;7.20;64.20;;;;;;5032756;28;20032;-73
2021/10/25 01:33:48;;;;;;;2.85;1.75;;;7.10;64.10;;;;;;5032058;28;20026;-72
2021/10/25 01:36:14;;;;;;;3.35;1.90;;;7.10;64.00;;;;;;5033224;28;20046;-73
2021/10/25 01:38:40;;;;;;;2.78;1.98;;;7.10;63.90;;;;;;5033266;28;20484;-73
2021/10/25 01:41:07;;;;;;;2.78;2.00;;;7.10;63.90;;;;;;5032131;28;20468;-73
2021/10/25 01:43:34;;;;;;;2.60;1.75;;;7.00;64.00;;;;;;5031617;28;20388;-73
2021/10/25 01:46:00;;;;;;;3.65;2.00;;;7.00;64.20;;;;;;5033385;28;20080;-73
2021/10/25 01:48:26;;;;;;;2.83;1.90;;;6.90;64.30;;;;;;5031851;28;20033;-73
2021/10/25 01:50:52;;;;;;;2.90;1.83;;;6.90;64.50;;;;;;5031796;28;20029;-73
2021/10/25 01:53:17;;;;;;;2.70;2.00;;;6.90;64.70;;;;;;5033284;28;20137;-73
2021/10/25 01:55:43;;;;;;;2.72;1.98;;;6.80;64.70;;;;;;5032903;28;20052;-72
2021/10/25 01:58:09;;;;;;;3.40;2.10;;;6.90;64.70;;;;;;5031311;28;20060;-72
2021/10/25 02:00:35;;;;;;;2.55;1.98;;;6.80;64.70;;;;;;5032840;28;20022;-72
2021/10/25 02:03:01;;;;;;;3.97;2.10;;;6.80;64.80;;;;;;5033122;28;20025;-72
2021/10/25 02:05:26;;;;;;;3.30;2.17;;;6.80;65.00;;;;;;5033089;28;20040;-73
2021/10/25 02:07:52;;;;;;;2.90;2.15;;;6.80;65.10;;;;;;5031726;28;20495;-72
2021/10/25 02:10:18;;;;;;;2.70;1.83;;;6.80;65.30;;;;;;5032814;28;20096;-72
2021/10/25 02:12:43;;;;;;;3.33;2.10;;;6.80;65.50;;;;;;5031416;28;20032;-71
2021/10/25 02:15:09;;;;;;;2.63;1.90;;;6.80;65.70;;;;;;5036406;28;20022;-72
2021/10/25 02:17:35;;;;;;;3.50;1.80;;;6.80;65.70;;;;;;5037093;28;20112;-72
2021/10/25 02:20:02;;;;;;;3.65;2.00;;;6.80;65.80;;;;;;5037057;28;20032;-72
2021/10/25 02:22:28;;;;;;;3.47;2.15;;;6.80;65.70;;;;;;5036923;28;20038;-72
2021/10/25 02:24:53;;;;;;;2.90;1.98;;;6.70;65.70;;;;;;5036635;28;20044;-71
2021/10/25 02:27:19;;;;;;;3.10;2.10;;;6.70;65.70;;;;;;5035097;28;20391;-73
2021/10/25 02:29:45;;;;;;;2.53;2.00;;;6.70;65.80;;;;;;5037067;28;20456;-72
2021/10/25 02:32:15;;;;;;;2.67;2.10;;;6.70;66.00;;;;;;5035650;28;20591;-72
2021/10/25 02:34:42;;;;;;;3.05;1.85;;;6.70;66.10;;;;;;5034534;28;20392;-75
2021/10/25 02:37:08;;;;;;;3.38;2.17;;;6.70;66.20;;;;;;5036506;28;20025;-75
2021/10/25 02:39:34;;;;;;;2.40;1.90;;;6.60;66.30;;;;;;5036629;28;20025;-72
2021/10/25 02:41:59;;;;;;;2.85;2.10;;;6.60;66.40;;;;;;5036220;28;20049;-72
2021/10/25 02:44:26;;;;;;;3.30;2.30;;;6.60;66.50;;;;;;5036450;28;20028;-73
2021/10/25 02:46:53;;;;;;;4.20;2.40;;;6.50;66.80;;;;;;5035148;28;20029;-72
2021/10/25 02:49:19;;;;;;;2.63;2.20;;;6.40;67.20;;;;;;5036481;28;20060;-73
2021/10/25 02:51:44;;;;;;;3.28;2.42;;;6.30;67.50;;;;;;5035164;28;20026;-72
2021/10/25 02:54:11;;;;;;;2.95;2.20;;;6.30;67.90;;;;;;5036089;28;20048;-72
2021/10/25 02:56:36;;;;;;;4.28;2.40;;;6.20;68.20;;;;;;5035855;28;20080;-75
2021/10/25 02:59:08;;;;;;;4.07;2.50;;;6.20;68.50;;;;;;5034659;28;20522;-73
2021/10/25 03:01:34;;;;;;;3.60;2.40;;;6.10;68.90;;;;;;5035277;28;20025;-73
2021/10/25 03:04:00;;;;;;;4.95;2.60;;;6.00;69.20;;;;;;5035917;28;20070;-73
2021/10/25 03:06:25;;;;;;;3.72;2.70;;;6.00;69.70;;;;;;5034725;28;20485;-73
2021/10/25 03:08:51;;;;;;;4.07;2.55;;;5.90;70.10;;;;;;5035968;28;20480;-72
2021/10/25 03:11:17;;;;;;;3.30;2.50;;;5.80;70.40;;;;;;5034822;28;20025;-72
2021/10/25 03:13:43;;;;;;;3.47;2.60;;;5.80;70.70;;;;;;5034880;28;20021;-78
2021/10/25 03:16:08;;;;;;;4.30;2.38;;;5.70;71.00;;;;;;5035666;28;20028;-72
2021/10/25 03:18:35;;;;;;;3.80;2.42;;;5.70;71.30;;;;;;5035853;28;20034;-72
2021/10/25 03:21:01;;;;;;;2.70;2.25;;;5.60;71.50;;;;;;5031838;28;20025;-72
2021/10/25 03:23:26;;;;;;;4.88;2.50;;;5.60;71.50;;;;;;5030461;28;20036;-74
2021/10/25 03:25:52;;;;;;;4.28;2.60;;;5.50;71.60;;;;;;5026352;28;20060;-73
2021/10/25 03:28:18;;;;;;;7.00;4.43;;;5.50;71.70;;;;;;5026378;28;20033;-72
2021/10/25 03:30:44;;;;;;;3.85;2.63;;;5.50;71.70;;;;;;5024360;28;20088;-74
2021/10/25 03:33:10;;;;;;;4.78;2.70;;;5.50;71.80;;;;;;5032230;28;20495;-74
2021/10/25 03:35:36;;;;;;;3.80;2.42;;;5.50;71.90;;;;;;5033235;28;20035;-73
2021/10/25 03:38:02;;;;;;;4.45;2.60;;;5.40;72.00;;;;;;5022874;28;20589;-73
2021/10/25 03:40:30;;;;;;;4.90;2.60;;;5.40;72.20;;;;;;5031115;28;20038;-73
2021/10/25 03:42:57;;;;;;;4.00;2.38;;;5.40;72.20;;;;;;5027808;28;20531;-79
2021/10/25 03:45:37;;;;;;;4.35;2.63;;;5.40;72.30;;;;;;5030166;28;20033;-79
2021/10/25 03:48:11;;;;;;;3.50;2.45;;;5.30;72.50;;;;;;5026730;28;20040;-73
2021/10/25 03:50:38;;;;;;;3.97;2.55;;;5.30;72.70;;;;;;5027656;28;20022;-73
2021/10/25 03:53:11;;;;;;;5.40;2.60;;;5.30;72.90;;;;;;5029628;28;20025;-74
2021/10/25 03:55:52;;;;;;;3.85;2.53;;;5.30;73.10;;;;;;5033566;28;20044;-72
2021/10/25 04:30:17;;;;;;;5.57;3.50;;;5.10;73.80;;;;;;5032083;28;20551;-69
2021/10/25 04:32:43;;;;;;;5.03;3.55;;;5.00;73.80;;;;;;5033300;28;20029;-69
2021/10/25 04:35:10;;;;;;;10.15;4.50;;;5.00;73.90;;;;;;5032153;28;20080;-69
2021/10/25 04:37:35;;;;;;;5.70;3.47;;;5.10;74.20;;;;;;5031433;28;20033;-69
2021/10/25 04:40:06;;;;;;;8.52;5.45;;;5.20;74.60;;;;;;5033210;28;20468;-70
2021/10/25 04:42:33;;;;;;;6.18;3.90;;;5.40;74.70;;;;;;5020204;28;20030;-69
2021/10/25 04:44:59;;;;;;;6.28;3.65;;;5.70;74.50;;;;;;5028153;28;20435;-68
2021/10/25 04:47:26;;;;;;;5.18;3.22;;;6.00;73.50;;;;;;5031840;28;20037;-69
2021/10/25 04:49:52;;;;;;;4.53;2.80;;;6.40;72.60;;;;;;5027220;28;20029;-70
2021/10/25 04:52:17;;;;;;;4.43;2.83;;;6.70;71.40;;;;;;5028414;28;20484;-71
2021/10/25 04:54:43;;;;;;;4.45;2.40;;;7.00;70.10;;;;;;5029912;28;20045;-70
2021/10/25 04:57:09;;;;;;;3.67;2.45;;;7.40;69.10;;;;;;5030907;28;20056;-70
2021/10/25 04:59:36;;;;;;;6.18;2.80;;;7.90;68.20;;;;;;5027280;28;20079;-70
2021/10/25 05:02:02;;;;;;;3.58;2.15;;;8.30;67.20;;;;;;5031967;28;20026;-70
2021/10/25 05:04:28;;;;;;;5.15;2.55;;;8.70;65.80;;;;;;5032061;28;20036;-71
2021/10/25 05:06:54;;;;;;;4.70;2.42;;;9.00;64.50;;;;;;5032074;28;20159;-71
2021/10/25 05:09:19;;;;;;;5.75;3.10;;;9.40;63.60;;;;;;5032514;28;20104;-70
2021/10/25 05:11:45;;;;;;;6.10;2.50;;;9.90;62.70;;;;;;5026867;28;20040;-73
2021/10/25 05:14:11;;;;;;;3.35;2.20;;;10.20;61.50;;;;;;5025907;28;20120;-70
2021/10/25 05:16:37;;;;;;;5.32;2.15;;;10.50;60.60;;;;;;5024455;28;20116;-71
2021/10/25 05:19:03;;;;;;;2.95;2.17;;;10.80;59.60;;;;;;5018042;28;20054;-73
2021/10/25 05:21:29;;;;;;;3.28;2.20;;;11.00;58.70;;;;;;5028165;28;20030;-72
2021/10/25 05:23:55;;;;;;;4.97;2.58;;;11.20;58.00;;;;;;5057126;28;20036;-73
2021/10/25 05:26:21;;;;;;;3.63;2.30;;;11.50;57.40;;;;;;5045566;28;20421;-71
2021/10/25 05:28:46;;;;;;;3.85;2.42;;;11.70;56.60;;;;;;5031151;28;20045;-71
2021/10/25 05:31:13;;;;;;;3.90;2.40;;;11.90;56.60;;;;;;5034080;28;20029;-72
2021/10/25 05:33:39;;;;;;;3.35;2.10;;;12.20;55.30;;;;;;5028390;28;20342;-71
2021/10/25 05:36:07;;;;;;;5.30;2.47;;;12.30;54.70;;;;;;5033174;28;20104;-74
2021/10/25 05:38:38;;;;;;;5.68;3.28;;;12.60;54.20;;;;;;5043236;28;20029;-68
2021/10/25 05:41:05;;;;;;;5.10;2.78;;;12.90;54.00;;;;;;5034044;28;20042;-69
2021/10/25 05:43:31;;;;;;;7.38;3.75;;;13.30;53.40;;;;;;5029697;28;20124;-67
2021/10/25 05:45:57;;;;;;;4.10;2.55;;;13.70;53.00;;;;;;5022325;28;20428;-72
2021/10/25 05:48:23;;;;;;;4.88;2.92;;;14.10;52.10;;;;;;5022429;28;20049;-69
2021/10/25 05:50:49;;;;;;;6.47;2.72;;;14.40;52.10;;;;;;5022562;28;20095;-68
2021/10/25 05:53:15;;;;;;;4.45;2.60;;;14.70;50.60;;;;;;5028017;28;20032;-71
2021/10/25 05:55:43;;;;;;;5.35;2.92;;;15.10;50.20;;;;;;5020151;28;20442;-66
2021/10/25 05:58:21;;;;;;;5.40;2.60;;;15.30;49.20;;;;;;5026219;28;20060;-69
2021/10/25 06:00:58;;;;;;;6.53;2.90;;;15.40;48.70;;;;;;5026344;28;20037;-66
2021/10/25 06:03:26;;;;;;;4.55;2.70;;;15.60;48.20;;;;;;5025858;28;20053;-69
2021/10/25 06:05:52;;;;;;;5.63;2.75;;;15.70;47.90;;;;;;5026654;28;20116;-76
2021/10/25 06:08:18;;;;;;;4.72;2.60;;;15.80;47.40;;;;;;5030492;28;20113;-75
2021/10/25 06:10:45;;;;;;;4.43;2.67;;;16.00;47.20;;;;;;5019703;28;20030;-73
2021/10/25 06:13:20;;;;;;;4.50;2.53;;;16.10;47.10;;;;;;5048011;28;20044;-80
2021/10/25 06:15:55;;;;;;;5.65;2.55;;;16.50;47.00;;;;;;5042764;28;20529;-74
2021/10/25 06:18:21;;;;;;;6.30;3.13;;;16.90;46.50;;;;;;5024913;28;20025;-78
2021/10/25 06:20:47;;;;;;;4.95;2.90;;;17.00;45.90;;;;;;5035011;28;20032;-72
2021/10/25 06:23:14;;;;;;;5.53;2.80;;;17.20;45.80;;;;;;5032261;28;20094;-70
2021/10/25 06:25:42;;;;;;;3.95;2.55;;;17.50;45.20;;;;;;5021531;28;20068;-70
2021/10/25 06:28:09;;;;;;;4.97;2.83;;;17.70;43.90;;;;;;5032304;28;20361;-69
2021/10/25 06:30:35;;;;;;;3.65;2.40;;;17.80;43.10;;;;;;5017344;28;20025;-71
2021/10/25 06:33:04;;;;;;;4.50;2.00;;;17.80;42.90;;;;;;5030624;28;20021;-72
2021/10/25 06:35:31;;;;;;;5.10;3.40;;;17.90;42.50;;;;;;5029917;28;20014;-71
2021/10/25 06:38:20;;;;;;;4.32;2.20;;;17.90;42.00;;;;;;5028988;28;20400;-70
2021/10/25 06:40:48;;;;;;;3.83;2.20;;;17.90;42.00;;;;;;5029672;28;20045;-70
2021/10/25 06:43:14;;;;;;;3.78;2.40;;;17.90;42.10;;;;;;5030239;28;20032;-70
2021/10/25 06:45:40;;;;;;;3.38;2.13;;;18.10;42.00;;;;;;5028453;28;20025;-70
2021/10/25 06:48:05;;;;;;;4.20;2.40;;;18.20;42.00;;;;;;5029716;28;20124;-68
2021/10/25 06:50:38;;;;;;;3.42;2.22;;;18.20;42.00;;;;;;5030716;28;20029;-71
2021/10/25 06:53:06;;;;;;;3.92;2.20;;;18.40;41.30;;;;;;5032455;28;20460;-70
2021/10/25 06:55:34;;;;;;;5.45;2.58;;;18.50;40.80;;;;;;5029921;28;20036;-70
2021/10/25 06:58:00;;;;;;;8.68;3.20;;;18.60;41.10;;;;;;5030532;28;20045;-70
2021/10/25 07:00:26;;;;;;;5.53;3.08;;;18.60;41.00;;;;;;5032664;28;20032;-69
2021/10/25 07:02:52;;;;;;;3.75;2.20;;;18.70;41.10;;;;;;5034293;28;20021;-69
2021/10/25 07:05:18;;;;;;;4.80;2.50;;;18.80;40.80;;;;;;5035528;28;20361;-69
2021/10/25 07:07:45;;;;;;;4.05;2.15;;;19.00;40.60;;;;;;5035808;28;20037;-70
2021/10/25 07:10:11;;;;;;;6.50;2.25;;;19.00;40.20;;;;;;5036157;28;20029;-70
2021/10/25 07:12:37;;;;;;;3.13;2.00;;;19.00;40.10;;;;;;5034237;28;20030;-73
2021/10/25 07:15:04;;;;;;;4.22;2.00;;;19.30;39.70;;;;;;5036039;28;20029;-71
2021/10/25 07:17:47;;;;;;;2.65;2.05;;;19.50;40.10;;;;;;5034210;28;20504;-71
2021/10/25 08:11:18;;;;;;;5.63;2.85;;;21.00;36.70;;;;;;5034348;28;20391;-70
2021/10/25 08:13:44;;;;;;;4.75;2.78;;;21.20;36.00;;;;;;5034008;28;20080;-70
2021/10/25 08:21:11;;;;;;;3.58;2.30;;;21.70;35.60;;;;;;5034393;28;20112;-70
2021/10/25 08:23:38;;;;;;;6.28;2.70;;;21.70;35.20;;;;;;5032984;28;20068;-69
2021/10/25 08:26:04;;;;;;;4.45;2.55;;;21.70;35.10;;;;;;5034494;28;20022;-71
2021/10/25 08:28:29;;;;;;;5.68;2.50;;;21.60;35.40;;;;;;5034424;28;20032;-70
2021/10/25 08:30:56;;;;;;;4.28;2.20;;;21.70;35.10;;;;;;5033454;28;20032;-71
2021/10/25 08:36:19;;;;;;;5.45;2.20;;;22.00;35.70;;;;;;5034167;28;20040;-70
2021/10/25 08:41:34;;;;;;;3.73;2.33;;;22.10;34.80;;;;;;5033971;28;20039;-72
2021/10/25 08:44:04;;;;;;;4.07;2.30;;;22.30;34.60;;;;;;5033909;28;20460;-70
2021/10/25 08:46:30;;;;;;;4.78;2.58;;;22.40;34.90;;;;;;5032847;28;20032;-71
2021/10/25 08:48:57;;;;;;;3.28;2.20;;;22.30;34.70;;;;;;5032751;28;20075;-70
2021/10/25 08:51:24;;;;;;;4.70;2.20;;;22.20;34.70;;;;;;5033971;28;20096;-71
2021/10/25 08:53:50;;;;;;;4.05;2.35;;;22.20;34.70;;;;;;5032616;28;20112;-71
2021/10/25 08:56:18;;;;;;;5.50;2.72;;;22.20;34.70;;;;;;5033738;28;20022;-71
2021/10/25 08:58:50;;;;;;;3.78;2.30;;;22.40;34.20;;;;;;5033662;28;20064;-71
2021/10/25 09:01:27;;;;;;;3.58;2.50;;;22.60;34.20;;;;;;5020560;28;20017;-71
2021/10/25 09:04:02;;;;;;;5.10;2.00;;;22.80;34.10;;;;;;5033770;28;20431;-72
2021/10/25 09:06:27;;;;;;;3.83;2.00;;;22.80;33.70;;;;;;5032599;28;20464;-70
2021/10/25 09:09:05;;;;;;;6.60;3.22;;;22.80;33.50;;;;;;5032512;28;20128;-70
2021/10/25 09:11:31;;;;;;;4.50;2.67;;;22.90;33.00;;;;;;5032165;28;20075;-71
2021/10/25 09:13:58;;;;;;;5.05;2.58;;;22.80;33.60;;;;;;5032811;28;20022;-70
2021/10/25 09:16:25;;;;;;;4.65;2.30;;;22.80;33.00;;;;;;5032251;28;20361;-70
2021/10/25 09:18:51;;;;;;;4.43;2.70;;;22.90;32.80;;;;;;5032379;28;20033;-71
2021/10/25 09:21:20;;;;;;;4.30;2.78;;;22.80;32.60;;;;;;5031951;28;20021;-72
2021/10/25 09:23:51;;;;;;;6.07;2.25;;;22.60;32.50;;;;;;5033018;28;20074;-72
2021/10/25 09:26:24;;;;;;;5.70;2.20;;;22.60;32.40;;;;;;5032216;28;20033;-70
2021/10/25 09:28:54;;;;;;;3.88;2.30;;;22.50;32.20;;;;;;5033536;28;20111;-69
2021/10/25 09:31:26;;;;;;;4.13;2.10;;;22.50;32.20;;;;;;5033375;28;20155;-70
2021/10/25 09:33:56;;;;;;;3.17;1.80;;;22.40;32.60;;;;;;5032099;28;20033;-69
2021/10/25 09:36:29;;;;;;;3.00;1.58;;;22.60;32.40;;;;;;5031968;28;20104;-69
2021/10/25 09:50:02;;;;;;;3.60;1.52;;;22.50;31.60;;;;;;5033573;28;20040;-69
2021/10/25 09:52:34;;;;;;;3.10;1.40;;;22.30;31.40;;;;;;5031560;28;20496;-69
2021/10/25 09:55:05;;;;;;;5.88;2.40;;;22.20;31.30;;;;;;5031434;28;20032;-68
2021/10/25 10:00:14;;;;;;;4.78;2.17;;;22.20;31.30;;;;;;5033230;28;20033;-70
2021/10/25 10:02:41;;;;;;;4.13;1.70;;;22.30;31.50;;;;;;5031615;28;20033;-70
2021/10/25 10:05:10;;;;;;;4.05;1.90;;;22.50;31.40;;;;;;5031826;28;20108;-71
2021/10/25 10:07:36;;;;;;;5.47;2.83;;;22.50;31.50;;;;;;5032351;28;20031;-72
2021/10/25 10:10:06;;;;;;;4.00;1.90;;;22.60;31.10;;;;;;5033347;28;20048;-70
2021/10/25 10:12:33;;;;;;;2.95;1.50;;;22.50;30.80;;;;;;5032698;28;20179;-71
2021/10/25 10:15:00;;;;;;;5.50;2.30;;;22.30;30.90;;;;;;5032707;28;20026;-71
2021/10/25 10:17:38;;;;;;;5.75;2.13;;;22.40;31.10;;;;;;5032339;28;20392;-69
2021/10/25 10:20:17;;;;;;;3.08;1.70;;;22.60;31.20;;;;;;5020356;28;20021;-70
2021/10/25 10:22:49;;;;;;;5.70;2.75;;;22.60;31.50;;;;;;5031111;28;20026;-69
2021/10/25 10:25:38;;;;;;;5.65;3.15;;;22.60;31.00;;;;;;5031536;28;20018;-71
2021/10/25 10:28:08;;;;;;;4.78;2.28;;;22.70;30.80;;;;;;5031509;28;20029;-70
2021/10/25 10:30:48;;;;;;;6.18;2.05;;;22.60;30.80;;;;;;5031129;28;20026;-70
2021/10/25 10:33:14;;;;;;;5.78;2.33;;;22.40;30.60;;;;;;5033056;28;20026;-72
2021/10/25 10:35:42;;;;;;;8.98;2.55;;;22.30;30.50;;;;;;5033889;28;20052;-70
2021/10/25 10:38:08;;;;;;;11.55;3.10;;;22.10;30.70;;;;;;5035403;28;20426;-70
2021/10/25 10:40:42;;;;;;;2.65;1.67;;;22.00;30.50;;;;;;5036398;28;20152;-70
2021/10/25 10:43:22;;;;;;;2.60;1.60;;;21.70;30.70;;;;;;5035094;28;20026;-69
2021/10/25 10:46:09;;;;;;;2.83;1.52;;;21.50;30.90;;;;;;5036433;28;20021;-69
2021/10/25 10:48:37;;;;;;;6.15;1.83;;;21.30;31.00;;;;;;5035191;28;20076;-69
2021/10/25 10:51:14;;;;;;;4.53;1.73;;;21.30;31.30;;;;;;5036249;28;20472;-69
2021/10/25 10:53:59;;;;;;;4.18;2.20;;;21.20;30.80;;;;;;5034725;28;20480;-72
2021/10/25 10:56:30;;;;;;;5.40;3.05;;;21.10;31.50;;;;;;5034992;28;20029;-71
2021/10/25 10:59:39;;;;;;;2.42;1.50;;;20.80;31.50;;;;;;5034810;28;20403;-71
2021/10/25 11:01:55;;;;;;;2.70;1.65;;;20.80;31.50;;;;;;5037982;28;20038;-71
2021/10/25 11:04:32;;;;;;;3.83;1.95;;;20.80;31.20;;;;;;5036381;28;20108;-69
2021/10/25 11:07:03;;;;;;;3.22;1.40;;;20.90;31.60;;;;;;5035245;28;20038;-70
2021/10/25 11:09:30;;;;;;;4.45;2.13;;;21.00;31.40;;;;;;5035706;28;20029;-69
2021/10/25 11:12:07;;;;;;;2.40;1.45;;;20.80;31.20;;;;;;5035777;28;20017;-69
2021/10/25 11:14:37;;;;;;;4.70;1.50;;;20.80;31.00;;;;;;5034579;28;20116;-68
2021/10/25 11:17:19;;;;;;;2.33;1.60;;;20.70;31.00;;;;;;5035963;28;20076;-69
2021/10/25 11:19:47;;;;;;;3.85;1.42;;;20.70;31.30;;;;;;5034549;28;20125;-70
2021/10/25 11:22:33;;;;;;;4.55;1.70;;;20.80;31.50;;;;;;5034635;28;20033;-70
2021/10/25 11:25:06;;;;;;;3.42;1.98;;;20.90;31.10;;;;;;5035381;28;20045;-70
2021/10/25 11:27:35;;;;;;;3.47;1.58;;;20.80;31.00;;;;;;5034138;28;20090;-69
2021/10/25 11:30:11;;;;;;;5.13;2.17;;;20.80;31.00;;;;;;5034319;28;20387;-70
2021/10/25 11:32:38;;;;;;;3.83;1.92;;;20.50;30.90;;;;;;5034275;28;20057;-69
2021/10/25 11:35:13;;;;;;;11.02;1.80;;;20.50;31.20;;;;;;5033851;28;20502;-70
2021/10/25 11:37:46;;;;;;;6.10;4.47;;;20.40;31.40;;;;;;5034152;28;20388;-69
2021/10/25 11:40:15;;;;;;;5.18;3.30;;;20.40;31.60;;;;;;5035441;28;20037;-68
2021/10/25 11:42:43;;;;;;;5.13;2.20;;;20.30;31.50;;;;;;5034143;28;20391;-68
2021/10/25 11:45:24;;;;;;;5.05;2.40;;;20.10;31.50;;;;;;5034149;28;20032;-68
2021/10/25 11:47:51;;;;;;;5.50;2.22;;;20.00;31.50;;;;;;5033575;28;20033;-69
2021/10/25 11:50:21;;;;;;;4.63;1.98;;;19.70;31.70;;;;;;5035156;28;20028;-67
2021/10/25 11:53:03;;;;;;;4.00;1.60;;;19.50;31.80;;;;;;5035496;28;20112;-70
2021/10/25 11:55:31;;;;;;;3.65;2.08;;;19.40;31.90;;;;;;5033698;28;20129;-69
2021/10/25 11:58:02;;;;;;;3.70;1.77;;;19.10;32.20;;;;;;5033628;28;20407;-70
2021/10/25 12:00:30;;;;;;;2.70;1.55;;;19.00;32.40;;;;;;5035169;28;20083;-72
2021/10/25 12:03:19;;;;;;;2.95;1.38;;;19.00;32.60;;;;;;5035296;28;20082;-69
2021/10/25 12:05:45;;;;;;;5.78;1.88;;;18.70;32.70;;;;;;5033675;28;20026;-69
2021/10/25 12:08:13;;;;;;;7.35;2.20;;;18.30;33.00;;;;;;5035116;28;20026;-69
2021/10/25 12:10:41;;;;;;;9.13;2.15;;;18.10;33.40;;;;;;5034777;28;20029;-71
2021/10/25 12:13:10;;;;;;;5.45;2.55;;;17.90;33.50;;;;;;5020240;28;20021;-69
2021/10/25 12:15:41;;;;;;;8.07;2.90;;;17.80;33.60;;;;;;5034485;28;20024;-69
2021/10/25 12:18:13;;;;;;;3.85;2.30;;;17.40;33.80;;;;;;5033481;28;20164;-70
2021/10/25 12:20:41;;;;;;;3.75;1.90;;;17.20;34.10;;;;;;5033682;28;20025;-70
2021/10/25 12:23:13;;;;;;;5.45;2.50;;;16.90;34.50;;;;;;5033094;28;20026;-71
2021/10/25 12:25:40;;;;;;;6.43;2.95;;;16.60;35.70;;;;;;5033767;28;20025;-69
2021/10/25 12:28:14;;;;;;;3.03;2.20;;;16.30;35.30;;;;;;5034602;28;20163;-70
2021/10/25 12:30:41;;;;;;;3.38;1.90;;;15.90;35.70;;;;;;5020135;28;20112;-70
2021/10/25 12:33:12;;;;;;;11.38;4.38;;;15.40;35.80;;;;;;5031408;28;20021;-70
2021/10/25 12:35:41;;;;;;;6.07;4.18;;;15.00;36.40;;;;;;5028613;28;20025;-70
2021/10/25 12:38:12;;;;;;;6.60;2.35;;;14.50;37.20;;;;;;5031411;28;20392;-69
2021/10/25 12:40:44;;;;;;;6.50;3.20;;;14.20;38.00;;;;;;5033992;28;20464;-68
2021/10/25 12:43:11;;;;;;;6.68;2.60;;;13.90;38.40;;;;;;5034109;28;20029;-68
2021/10/25 12:45:42;;;;;;;8.75;2.95;;;13.50;38.80;;;;;;5032337;28;20495;-69
2021/10/25 12:48:10;;;;;;;8.02;3.15;;;13.30;39.20;;;;;;5034310;28;20037;-68
2021/10/25 12:50:42;;;;;;;7.18;3.08;;;13.00;39.90;;;;;;5032840;28;20033;-69
2021/10/25 12:53:12;;;;;;;5.20;2.33;;;12.70;40.40;;;;;;5034273;28;20021;-68
2021/10/25 12:55:38;;;;;;;6.05;2.17;;;12.50;40.70;;;;;;5032385;28;20029;-68
2021/10/25 12:58:08;;;;;;;3.40;2.17;;;12.30;41.00;;;;;;5032826;28;20060;-68
2021/10/25 13:00:35;;;;;;;4.55;2.05;;;12.20;41.70;;;;;;5032556;28;20029;-69
2021/10/25 13:03:01;;;;;;;5.20;2.50;;;12.20;41.70;;;;;;5032489;28;20067;-73
2021/10/25 13:05:38;;;;;;;7.93;2.92;;;12.10;41.70;;;;;;5032442;28;20471;-70
2021/10/25 13:08:07;;;;;;;5.32;2.97;;;12.00;41.90;;;;;;5032392;28;20113;-71
2021/10/25 13:10:42;;;;;;;5.35;2.75;;;11.90;41.90;;;;;;5033542;28;20033;-69
2021/10/25 13:13:12;;;;;;;6.07;3.22;;;11.90;42.50;;;;;;5032162;28;20018;-69
2021/10/25 13:15:41;;;;;;;5.15;2.70;;;11.90;42.50;;;;;;5032478;28;20025;-68
2021/10/25 13:18:09;;;;;;;4.72;2.53;;;11.90;42.80;;;;;;5032159;28;20029;-69
2021/10/25 13:20:40;;;;;;;6.28;3.70;;;11.80;43.10;;;;;;5032567;28;20055;-69
2021/10/25 13:23:07;;;;;;;5.53;3.17;;;11.70;43.00;;;;;;5033422;28;20022;-68
2021/10/25 13:25:34;;;;;;;5.03;2.70;;;11.50;43.00;;;;;;5033100;28;20029;-69
2021/10/25 13:28:01;;;;;;;7.43;3.33;;;11.30;43.40;;;;;;5033165;28;20026;-69
2021/10/25 13:30:28;;;;;;;6.32;3.10;;;11.30;43.80;;;;;;5032235;28;20116;-68
2021/10/25 13:32:54;;;;;;;4.55;2.47;;;11.10;44.00;;;;;;5032188;28;20021;-69
2021/10/25 13:35:20;;;;;;;5.22;2.50;;;11.00;44.10;;;;;;5032970;28;20464;-70
2021/10/25 13:37:52;;;;;;;4.13;2.28;;;11.00;44.20;;;;;;5031874;28;20128;-68
2021/10/25 13:40:23;;;;;;;5.32;2.83;;;10.90;44.30;;;;;;5031719;28;20022;-72
2021/10/25 13:42:49;;;;;;;5.43;2.95;;;10.80;44.20;;;;;;5032498;28;20384;-69
2021/10/25 13:45:15;;;;;;;6.10;3.33;;;10.70;44.40;;;;;;5031409;28;20028;-71
2021/10/25 13:47:41;;;;;;;5.95;3.35;;;10.70;45.00;;;;;;5031996;28;20036;-70
2021/10/25 13:50:07;;;;;;;8.73;3.50;;;10.60;45.20;;;;;;5031810;28;20044;-72
2021/10/25 13:52:35;;;;;;;8.40;3.88;;;10.60;45.20;;;;;;5033210;28;20057;-69
2021/10/25 13:55:00;;;;;;;8.90;4.82;;;10.40;45.10;;;;;;5031930;28;20537;-72
2021/10/25 13:57:27;;;;;;;12.90;5.55;;;10.40;45.20;;;;;;5031183;28;20076;-69
2021/10/25 13:59:54;;;;;;;15.85;6.70;;;10.30;45.20;;;;;;5031651;28;20045;-70
2021/10/25 14:02:30;;;;;;;13.50;7.80;;;10.30;45.40;;;;;;5031535;28;20442;-69
2021/10/25 14:04:59;;;;;;;12.65;5.97;;;10.20;45.70;;;;;;5031721;28;20021;-71
2021/10/25 14:07:33;;;;;;;11.02;6.28;;;10.10;45.80;;;;;;5032290;28;20017;-69
2021/10/25 14:10:08;;;;;;;11.38;6.68;;;10.00;46.00;;;;;;5032879;28;20026;-68
2021/10/25 14:12:36;;;;;;;14.50;7.45;;;9.90;46.30;;;;;;5032638;28;20026;-69
2021/10/25 14:17:52;;;;;;;14.48;6.47;;;9.80;46.70;;;;;;5032702;28;20129;-68
2021/10/25 14:20:22;;;;;;;11.25;6.00;;;9.70;46.90;;;;;;5033004;28;20029;-69
2021/10/25 14:22:49;;;;;;;11.70;6.18;;;9.50;47.20;;;;;;5032627;28;20076;-68
2021/10/25 14:25:15;;;;;;;14.77;8.48;;;9.40;47.30;;;;;;5031600;28;20384;-68
2021/10/25 14:27:41;;;;;;;15.55;7.95;;;9.40;47.60;;;;;;5032912;28;20026;-69
2021/10/25 14:30:08;;;;;;;14.50;8.00;;;9.30;47.70;;;;;;5031445;28;20072;-69
2021/10/25 14:32:34;;;;;;;14.55;6.95;;;9.20;47.80;;;;;;5033198;28;20037;-69
2021/10/25 14:35:00;;;;;;;13.15;6.00;;;9.10;47.90;;;;;;5031199;28;20025;-69
2021/10/25 14:37:31;;;;;;;14.52;8.60;;;9.00;48.10;;;;;;5047370;28;20516;-69
2021/10/25 14:39:58;;;;;;;25.13;16.23;;;8.90;48.30;;;;;;5031206;28;20034;-69
2021/10/25 14:42:29;;;;;;;20.95;13.48;;;8.90;48.60;;;;;;5032558;28;20017;-66
2021/10/25 14:45:05;;;;;;;30.75;17.92;;;8.80;48.80;;;;;;5032354;28;20040;-69
2021/10/25 14:56:16;;;;;;;35.75;19.77;;;8.60;49.60;;;;;;5032329;28;20047;-68